KCOT/COT METAR and TAF weather

Enter ICAO airport designator
Station Type Date Time Source
KCOT METAR 2021/09/24 02:53 UTC NOAA

KCOT 240253Z AUTO 12009KT 10SM CLR 24/05 A3002 RMK AO2 SLP157 T02390050 53014


Station Type Date Time Source
KCOT Decoded METAR 2021/09/24 02:53 UTC NOAA

COTULLA-LASALLE COUNTY AIRPORT , TX, United States (KCOT) 28-27N 099-13W 140M
Sep 23, 2021 - 10:53 PM EDT / 2021.09.24 0253 UTC
Wind: from the ESE (120 degrees) at 10 MPH (9 KT):0
Visibility: 10 mile(s):0
Sky conditions: clear
Temperature: 75.0 F (23.9 C)
Dew Point: 41.0 F (5.0 C)
Relative Humidity: 29%
Pressure (altimeter): 30.02 in. Hg (1016 hPa)
Pressure tendency: 0.04 inches (1.4 hPa) higher than three hours ago
ob: KCOT 240253Z AUTO 12009KT 10SM CLR 24/05 A3002 RMK AO2 SLP157 T02390050 53014
cycle: 3

Station Type Date Time Source
KCOT TAF 2021/09/23 18:24 UTC NOAA

TAF KCOT 231720Z 2318/2418 11006KT P6SM SKC

Example: see airport list